Portada
METAR-TAF:

METAR-TAF

Aeroports :

Istre, França

latitud: 43-31N, longitud: 004-56E, altitud: 23 m

Observació

L'informe es va fer fa 16 minuts, a les 23:30 UTC
Vent 9 kt del Nord-Oest
Temperatura 15°C
Humitat 82%
Pressió 1001 hPa
Visibilitat 10 km o més
sense núvols per sota de 1500 mi sense presència de cumulonimbus.

METAR: LFMI 042330Z AUTO 31009KT CAVOK 15/12 Q1001 NOSIG

Hora: 01:46 (23:46 UTC)

Pronòstic

L'informe es va fer fa 3 hores i 46 minuts, a les 20:00 UTC
Pronòstic vàlid del 04 a les 21 UTC al 05 a les 21 UTC
Vent 5 kt del Oest/Nord-Oest
Visibilitat 10 km o més
sense núvols per sota de 1500 mi sense presència de cumulonimbus.
Evolucionant progressivament
l' 05 a les 07 UTC al 05 a les 09 UTC
Vent 20 kt del Oest/Nord-Oest amb ràfegues de 30 kt

TAF: LFMI 042000Z 0421/0521 30005KT CAVOK BECMG 0507/0509 30020G30KT

Observacions i pronòstics meteorològics de més de 4000 aeroports (METAR i TAF).

Les estacions disponibles són els punts grocs i vermells al mapa.

Posi el ratolí al punt desitjat per veure el nom de l'estació.

Feu clic per veure les observacions i els pronòstics meteorològics.

Per canviar el mapa: feu clic els botons verds amb una creu de color negre per apropar; al botó verd amb un guió per allunyar la imatge; o en les fletxes verdes per a mapes adjacents.


METAR-TAF: